createdAt,value
2019-05-14T00:00:02.557Z,1037.15
2019-05-14T00:05:02.709Z,1037.1
2019-05-14T00:10:03.275Z,1037.14
2019-05-14T00:15:02.699Z,1037.14
2019-05-14T00:20:09.721Z,1037.1
2019-05-14T00:25:02.541Z,1037.16
2019-05-14T00:30:03.004Z,1037.19
2019-05-14T00:35:02.526Z,1037.18
2019-05-14T00:40:02.158Z,1037.14
2019-05-14T00:45:02.679Z,1037.09
2019-05-14T00:50:03.210Z,1037.14
2019-05-14T00:55:02.737Z,1037.1
2019-05-14T01:00:03.286Z,1037.05
2019-05-14T01:05:02.810Z,1037.05
2019-05-14T01:10:03.373Z,1036.95
2019-05-14T01:15:10.179Z,1037.04
2019-05-14T01:20:03.266Z,1036.95
2019-05-14T01:25:02.843Z,1036.9
2019-05-14T01:30:03.390Z,1036.85
2019-05-14T01:35:02.905Z,1036.85
2019-05-14T01:40:03.452Z,1036.78
2019-05-14T01:45:02.979Z,1036.69
2019-05-14T01:50:02.512Z,1036.72
2019-05-14T01:55:03.045Z,1036.71
2019-05-14T02:00:02.572Z,1036.73
2019-05-14T02:05:03.011Z,1036.67
2019-05-14T02:10:02.466Z,1036.72
2019-05-14T02:15:02.968Z,1036.69
2019-05-14T02:20:02.571Z,1036.71
2019-05-14T02:25:03.011Z,1036.8
2019-05-14T02:30:02.534Z,1036.79
2019-05-14T02:35:03.111Z,1036.9
2019-05-14T02:40:02.640Z,1036.85
2019-05-14T02:45:03.218Z,1036.85
2019-05-14T02:50:02.809Z,1036.82
2019-05-14T02:55:03.385Z,1036.82
2019-05-14T03:00:02.872Z,1036.78
2019-05-14T03:05:03.422Z,1036.72
2019-05-14T03:10:02.206Z,1036.62
2019-05-14T03:15:01.895Z,1036.6
2019-05-14T03:20:03.446Z,1036.57
2019-05-14T03:25:02.911Z,1036.59
2019-05-14T03:30:03.411Z,1036.58
2019-05-14T03:35:04.632Z,1036.48
2019-05-14T03:40:03.385Z,1036.47
2019-05-14T03:45:02.826Z,1036.44
2019-05-14T03:50:03.312Z,1036.43
2019-05-14T03:55:04.867Z,1036.46
2019-05-14T04:00:02.553Z,1036.44
2019-05-14T04:05:03.023Z,1036.4
2019-05-14T04:10:02.538Z,1036.45
2019-05-14T04:15:03.071Z,1036.48
2019-05-14T04:20:02.587Z,1036.42
2019-05-14T04:25:03.021Z,1036.37
2019-05-14T04:30:03.315Z,1036.39
2019-05-14T04:35:02.777Z,1036.29
2019-05-14T04:40:03.327Z,1036.29
2019-05-14T04:45:05.688Z,1036.12
2019-05-14T04:50:02.582Z,1036.07
2019-05-14T04:55:03.019Z,1036.06
2019-05-14T05:00:02.580Z,1036.01
2019-05-14T05:05:03.131Z,1035.98
2019-05-14T05:10:02.585Z,1035.89
2019-05-14T05:15:03.087Z,1036.05
2019-05-14T05:20:02.581Z,1036.08
2019-05-14T05:25:03.025Z,1036.09
2019-05-14T05:30:02.466Z,1036.04
2019-05-14T05:36:09.511Z,1036.06
2019-05-14T05:40:03.104Z,1036.04
2019-05-14T05:45:34.108Z,1035.98
2019-05-14T05:50:02.571Z,1035.95
2019-05-14T05:55:03.018Z,1035.84
2019-05-14T06:00:02.556Z,1035.79
2019-05-14T06:05:02.986Z,1035.75
2019-05-14T06:10:02.820Z,1035.73
2019-05-14T06:15:03.256Z,1035.64
2019-05-14T06:20:02.845Z,1035.64
2019-05-14T06:25:03.323Z,1035.58
2019-05-14T06:30:02.786Z,1035.58
2019-05-14T06:35:03.244Z,1035.52
2019-05-14T06:40:02.737Z,1035.39
2019-05-14T06:45:03.181Z,1035.48
2019-05-14T06:50:02.701Z,1035.41
2019-05-14T06:55:03.217Z,1035.39
2019-05-14T07:00:02.771Z,1035.34
2019-05-14T07:05:03.291Z,1035.5
2019-05-14T07:10:02.835Z,1035.42
2019-05-14T07:15:03.348Z,1035.41
2019-05-14T07:20:02.872Z,1035.48
2019-05-14T07:25:03.409Z,1035.4
2019-05-14T07:30:02.864Z,1035.41
2019-05-14T07:35:03.376Z,1035.45
2019-05-14T07:40:02.902Z,1035.43
2019-05-14T07:45:03.345Z,1035.51
2019-05-14T07:50:10.055Z,1035.47
2019-05-14T07:55:02.589Z,1035.49
2019-05-14T08:00:03.198Z,1035.52
2019-05-14T08:05:02.679Z,1035.35
2019-05-14T08:10:03.205Z,1035.36
2019-05-14T08:20:03.282Z,1035.33
2019-05-14T08:25:02.714Z,1035.3
2019-05-14T08:30:03.237Z,1035.33
2019-05-14T08:35:02.764Z,1035.33
2019-05-14T08:40:03.211Z,1035.28
2019-05-14T08:45:04.799Z,1035.21
2019-05-14T08:50:01.599Z,1035.09
2019-05-14T08:55:09.371Z,1034.94
2019-05-14T09:00:02.653Z,1034.9
2019-05-14T09:05:04.723Z,1034.78
2019-05-14T09:10:02.589Z,1034.71
2019-05-14T09:15:02.233Z,1034.63
2019-05-14T09:20:06.763Z,1034.5
2019-05-14T09:25:02.777Z,1034.54
2019-05-14T09:30:03.235Z,1034.46
2019-05-14T09:35:02.752Z,1034.41
2019-05-14T09:40:03.296Z,1034.44
2019-05-14T09:45:02.833Z,1034.5
2019-05-14T09:50:18.357Z,1034.41
2019-05-14T09:55:02.694Z,1034.42
2019-05-14T10:00:03.216Z,1034.42
2019-05-14T10:05:02.642Z,1034.33
2019-05-14T10:10:03.186Z,1034.25
2019-05-14T10:15:02.716Z,1034.1
2019-05-14T10:20:03.158Z,1033.95
2019-05-14T10:25:02.645Z,1033.81
2019-05-14T10:30:03.111Z,1033.78
2019-05-14T10:35:02.634Z,1033.84
2019-05-14T10:40:03.078Z,1033.94
2019-05-14T10:45:02.609Z,1033.7
2019-05-14T10:50:03.179Z,1033.67
2019-05-14T10:55:02.678Z,1033.6
2019-05-14T11:00:03.214Z,1033.61
2019-05-14T11:05:02.736Z,1033.55
2019-05-14T11:10:03.187Z,1033.57
2019-05-14T11:15:02.698Z,1033.43
2019-05-14T11:20:03.146Z,1033.36
2019-05-14T11:27:12.412Z,1033.18
2019-05-14T11:30:02.898Z,1033.14
2019-05-14T11:35:03.386Z,1033.05
2019-05-14T11:40:02.834Z,1032.99
2019-05-14T11:45:03.446Z,1032.88
2019-05-14T11:50:02.945Z,1033.0
2019-05-14T11:55:02.453Z,1032.8
2019-05-14T12:00:02.895Z,1032.77
2019-05-14T12:05:03.478Z,1032.72
2019-05-14T12:10:02.959Z,1032.82
2019-05-14T12:15:03.530Z,1032.59
2019-05-14T12:20:03.025Z,1032.47
2019-05-14T12:25:02.547Z,1032.49
2019-05-14T12:30:03.012Z,1032.46
2019-05-14T12:36:09.768Z,1032.3
2019-05-14T12:40:02.742Z,1032.3
2019-05-14T12:45:03.221Z,1032.35
2019-05-14T12:50:02.720Z,1032.32
2019-05-14T12:55:03.164Z,1032.35
2019-05-14T13:00:02.599Z,1032.26
2019-05-14T13:05:03.126Z,1032.03
2019-05-14T13:10:02.638Z,1032.1
2019-05-14T13:15:03.189Z,1031.9
2019-05-14T13:20:02.687Z,1031.89
2019-05-14T13:25:03.154Z,1031.73
2019-05-14T13:30:02.664Z,1031.76
2019-05-14T13:35:02.303Z,1031.54
2019-05-14T13:40:02.831Z,1031.45
2019-05-14T13:45:03.327Z,1031.49
2019-05-14T13:50:02.762Z,1031.57
2019-05-14T13:55:03.249Z,1031.43
2019-05-14T14:00:02.774Z,1031.28
2019-05-14T14:05:03.308Z,1031.21
2019-05-14T14:10:02.828Z,1031.12
2019-05-14T14:15:03.256Z,1031.04
2019-05-14T14:20:02.791Z,1031.0
2019-05-14T14:25:03.383Z,1030.9
2019-05-14T14:30:02.845Z,1030.84
2019-05-14T14:35:03.365Z,1030.74
2019-05-14T14:40:02.928Z,1030.68
2019-05-14T14:45:03.510Z,1030.79
2019-05-14T14:50:03.019Z,1030.7
2019-05-14T14:55:02.435Z,1030.66
2019-05-14T15:00:02.947Z,1030.66
2019-05-14T15:05:08.674Z,1030.66
2019-05-14T15:10:02.939Z,1030.62
2019-05-14T15:15:03.484Z,1030.6
2019-05-14T15:20:03.009Z,1030.59
2019-05-14T15:25:02.533Z,1030.52
2019-05-14T15:30:02.982Z,1030.44
2019-05-14T15:35:02.472Z,1030.35
2019-05-14T15:40:04.163Z,1030.29
2019-05-14T15:45:02.891Z,1030.2
2019-05-14T15:50:03.426Z,1030.24
2019-05-14T15:55:02.910Z,1030.18
2019-05-14T16:00:03.489Z,1030.15
2019-05-14T16:05:02.972Z,1030.08
2019-05-14T16:10:02.494Z,1029.99
2019-05-14T16:15:03.034Z,1029.99
2019-05-14T16:20:02.591Z,1029.95
2019-05-14T16:25:03.116Z,1029.86
2019-05-14T16:30:02.676Z,1029.9
2019-05-14T16:35:03.194Z,1029.82
2019-05-14T16:40:02.695Z,1029.81
2019-05-14T16:45:03.234Z,1029.8
2019-05-14T16:50:02.784Z,1029.81
2019-05-14T16:55:20.459Z,1029.88
2019-05-14T17:00:03.147Z,1029.9
2019-05-14T17:05:02.649Z,1029.87
2019-05-14T17:10:03.205Z,1029.84
2019-05-14T17:15:02.728Z,1029.87
2019-05-14T17:20:03.278Z,1029.86
2019-05-14T17:25:02.786Z,1029.86
2019-05-14T17:30:03.338Z,1029.85
2019-05-14T17:35:02.856Z,1029.79
2019-05-14T17:40:03.401Z,1029.79
2019-05-14T17:45:02.934Z,1029.76
2019-05-14T17:50:03.480Z,1029.73
2019-05-14T17:55:02.978Z,1029.72
2019-05-14T18:00:02.512Z,1029.71
2019-05-14T18:05:02.939Z,1029.64
2019-05-14T18:10:03.403Z,1029.57
2019-05-14T18:15:15.217Z,1029.59
2019-05-14T18:20:02.754Z,1029.59
2019-05-14T18:25:03.294Z,1029.6
2019-05-14T18:30:02.819Z,1029.58
2019-05-14T18:35:03.358Z,1029.67
2019-05-14T18:40:02.877Z,1029.6
2019-05-14T18:45:03.329Z,1029.52
2019-05-14T18:50:02.848Z,1029.57
2019-05-14T18:55:03.397Z,1029.6
2019-05-14T19:00:02.916Z,1029.57
2019-05-14T19:05:03.386Z,1029.53
2019-05-14T19:10:02.832Z,1029.57
2019-05-14T19:15:03.317Z,1029.45
2019-05-14T19:20:02.837Z,1029.46
2019-05-14T19:25:02.576Z,1029.45
2019-05-14T19:30:19.150Z,1029.5
2019-05-14T19:35:02.834Z,1029.48
2019-05-14T19:40:03.392Z,1029.53
2019-05-14T19:45:02.915Z,1029.57
2019-05-14T19:51:08.390Z,1029.56
2019-05-14T19:55:02.881Z,1029.56
2019-05-14T20:00:03.416Z,1029.62
2019-05-14T20:05:05.492Z,1029.64
2019-05-14T20:10:03.179Z,1029.67
2019-05-14T20:15:02.717Z,1029.65
2019-05-14T20:20:03.245Z,1029.72
2019-05-14T20:25:02.744Z,1029.72
2019-05-14T20:30:03.736Z,1029.76
2019-05-14T20:35:03.243Z,1029.74
2019-05-14T20:40:01.888Z,1029.67
2019-05-14T20:45:03.517Z,1029.62
2019-05-14T20:50:03.058Z,1029.63
2019-05-14T20:55:02.554Z,1029.57
2019-05-14T21:00:03.130Z,1029.49
2019-05-14T21:05:04.890Z,1029.44
2019-05-14T21:10:02.901Z,1029.51
2019-05-14T21:15:03.447Z,1029.47
2019-05-14T21:20:02.956Z,1029.41
2019-05-14T21:25:02.441Z,1029.37
2019-05-14T21:30:03.024Z,1029.42
2019-05-14T21:35:01.735Z,1029.42
2019-05-14T21:40:03.332Z,1029.45
2019-05-14T21:45:02.916Z,1029.44
2019-05-14T21:50:03.510Z,1029.4
2019-05-14T21:55:03.124Z,1029.44
2019-05-14T22:00:02.618Z,1029.39
2019-05-14T22:05:03.167Z,1029.35
2019-05-14T22:10:02.701Z,1029.44
2019-05-14T22:15:03.222Z,1029.39
2019-05-14T22:20:02.755Z,1029.45
2019-05-14T22:25:03.305Z,1029.43
2019-05-14T22:30:02.771Z,1029.39
2019-05-14T22:35:03.257Z,1029.39
2019-05-14T22:40:02.798Z,1029.41
2019-05-14T22:45:03.332Z,1029.39
2019-05-14T22:50:02.852Z,1029.37
2019-05-14T22:55:03.388Z,1029.36
2019-05-14T23:00:07.554Z,1029.32
2019-05-14T23:05:03.151Z,1029.39
2019-05-14T23:10:02.672Z,1029.29
2019-05-14T23:15:03.223Z,1029.28
2019-05-14T23:20:02.743Z,1029.25
2019-05-14T23:25:03.303Z,1029.31
2019-05-14T23:30:02.803Z,1029.28
2019-05-14T23:35:03.363Z,1029.18
2019-05-14T23:40:02.891Z,1029.19
2019-05-14T23:45:03.380Z,1029.2
2019-05-14T23:50:02.947Z,1029.16
2019-05-14T23:55:03.493Z,1029.14
